sensor_id;sensor_type;location;lat;lon;timestamp;temperature;humidity
18160;DHT22;9205;52.032;4.314;2023-08-06T00:00:53;15.70;99.90
18160;DHT22;9205;52.032;4.314;2023-08-06T00:03:20;15.40;99.90
18160;DHT22;9205;52.032;4.314;2023-08-06T00:05:47;16.00;99.90
18160;DHT22;9205;52.032;4.314;2023-08-06T00:08:15;15.60;99.90
18160;DHT22;9205;52.032;4.314;2023-08-06T00:10:42;16.00;99.90
18160;DHT22;9205;52.032;4.314;2023-08-06T00:13:09;15.70;99.90
18160;DHT22;9205;52.032;4.314;2023-08-06T00:15:38;15.80;99.90
18160;DHT22;9205;52.032;4.314;2023-08-06T00:18:05;15.50;99.90
18160;DHT22;9205;52.032;4.314;2023-08-06T00:20:32;15.60;99.90
18160;DHT22;9205;52.032;4.314;2023-08-06T00:22:59;15.80;99.90
18160;DHT22;9205;52.032;4.314;2023-08-06T00:25:28;16.00;99.90
18160;DHT22;9205;52.032;4.314;2023-08-06T00:27:55;15.90;99.90
18160;DHT22;9205;52.032;4.314;2023-08-06T00:30:22;15.90;99.90
18160;DHT22;9205;52.032;4.314;2023-08-06T00:32:51;15.70;99.90
18160;DHT22;9205;52.032;4.314;2023-08-06T00:35:18;16.10;99.90
18160;DHT22;9205;52.032;4.314;2023-08-06T00:37:47;16.10;99.90
18160;DHT22;9205;52.032;4.314;2023-08-06T00:40:14;16.10;99.90
18160;DHT22;9205;52.032;4.314;2023-08-06T00:42:41;15.90;99.90
18160;DHT22;9205;52.032;4.314;2023-08-06T00:45:11;15.60;99.90
18160;DHT22;9205;52.032;4.314;2023-08-06T00:47:38;16.10;99.90
18160;DHT22;9205;52.032;4.314;2023-08-06T00:50:08;16.10;99.90
18160;DHT22;9205;52.032;4.314;2023-08-06T00:52:36;15.80;99.90
18160;DHT22;9205;52.032;4.314;2023-08-06T00:55:06;16.10;99.90
18160;DHT22;9205;52.032;4.314;2023-08-06T00:57:34;15.80;99.90
18160;DHT22;9205;52.032;4.314;2023-08-06T01:00:02;16.10;99.90
18160;DHT22;9205;52.032;4.314;2023-08-06T01:02:31;15.50;99.90
18160;DHT22;9205;52.032;4.314;2023-08-06T01:04:58;15.80;99.90
18160;DHT22;9205;52.032;4.314;2023-08-06T01:07:37;15.90;99.90
18160;DHT22;9205;52.032;4.314;2023-08-06T01:10:33;15.60;99.90
18160;DHT22;9205;52.032;4.314;2023-08-06T01:13:11;16.10;99.90
18160;DHT22;9205;52.032;4.314;2023-08-06T01:15:47;15.70;99.90
18160;DHT22;9205;52.032;4.314;2023-08-06T01:18:18;16.00;99.90
18160;DHT22;9205;52.032;4.314;2023-08-06T01:20:47;15.80;99.90
18160;DHT22;9205;52.032;4.314;2023-08-06T01:23:15;16.00;99.90
18160;DHT22;9205;52.032;4.314;2023-08-06T01:25:49;15.60;99.90
18160;DHT22;9205;52.032;4.314;2023-08-06T01:28:30;15.70;99.90
18160;DHT22;9205;52.032;4.314;2023-08-06T01:31:03;15.50;99.90
18160;DHT22;9205;52.032;4.314;2023-08-06T01:33:37;16.20;99.90
18160;DHT22;9205;52.032;4.314;2023-08-06T01:36:10;15.70;99.90
18160;DHT22;9205;52.032;4.314;2023-08-06T01:38:38;16.20;99.90
18160;DHT22;9205;52.032;4.314;2023-08-06T01:41:05;15.70;99.90
18160;DHT22;9205;52.032;4.314;2023-08-06T01:43:32;15.70;99.90
18160;DHT22;9205;52.032;4.314;2023-08-06T01:45:59;15.50;99.90
18160;DHT22;9205;52.032;4.314;2023-08-06T01:48:26;15.50;99.90
18160;DHT22;9205;52.032;4.314;2023-08-06T01:50:54;15.40;99.90
18160;DHT22;9205;52.032;4.314;2023-08-06T01:53:22;15.50;99.90
18160;DHT22;9205;52.032;4.314;2023-08-06T01:55:51;16.00;99.90
18160;DHT22;9205;52.032;4.314;2023-08-06T01:58:18;16.10;99.90
18160;DHT22;9205;52.032;4.314;2023-08-06T02:00:46;15.50;99.90
18160;DHT22;9205;52.032;4.314;2023-08-06T02:03:13;16.10;99.90
18160;DHT22;9205;52.032;4.314;2023-08-06T02:05:40;15.70;99.90
18160;DHT22;9205;52.032;4.314;2023-08-06T02:08:08;15.80;99.90
18160;DHT22;9205;52.032;4.314;2023-08-06T02:10:36;16.00;99.90
18160;DHT22;9205;52.032;4.314;2023-08-06T02:13:04;16.00;99.90
18160;DHT22;9205;52.032;4.314;2023-08-06T02:15:31;16.00;99.90
18160;DHT22;9205;52.032;4.314;2023-08-06T02:17:58;15.60;99.90
18160;DHT22;9205;52.032;4.314;2023-08-06T02:20:26;15.40;99.90
18160;DHT22;9205;52.032;4.314;2023-08-06T02:22:54;15.30;99.90
18160;DHT22;9205;52.032;4.314;2023-08-06T02:25:21;15.40;99.90
18160;DHT22;9205;52.032;4.314;2023-08-06T02:27:50;15.50;99.90
18160;DHT22;9205;52.032;4.314;2023-08-06T02:30:17;15.80;99.90
18160;DHT22;9205;52.032;4.314;2023-08-06T02:32:44;16.10;99.90
18160;DHT22;9205;52.032;4.314;2023-08-06T02:35:11;15.70;99.90
18160;DHT22;9205;52.032;4.314;2023-08-06T02:37:39;15.70;99.90
18160;DHT22;9205;52.032;4.314;2023-08-06T02:40:07;16.00;99.90
18160;DHT22;9205;52.032;4.314;2023-08-06T02:42:35;15.40;99.90
18160;DHT22;9205;52.032;4.314;2023-08-06T02:45:05;15.70;99.90
18160;DHT22;9205;52.032;4.314;2023-08-06T02:47:34;15.50;99.90
18160;DHT22;9205;52.032;4.314;2023-08-06T02:50:01;15.50;99.90
18160;DHT22;9205;52.032;4.314;2023-08-06T02:52:29;15.50;99.90
18160;DHT22;9205;52.032;4.314;2023-08-06T02:54:57;15.60;99.90
18160;DHT22;9205;52.032;4.314;2023-08-06T02:57:26;15.40;99.90
18160;DHT22;9205;52.032;4.314;2023-08-06T02:59:54;15.00;99.90
18160;DHT22;9205;52.032;4.314;2023-08-06T03:02:24;15.40;99.90
18160;DHT22;9205;52.032;4.314;2023-08-06T03:05:00;15.40;99.90
18160;DHT22;9205;52.032;4.314;2023-08-06T03:07:32;15.90;99.90
18160;DHT22;9205;52.032;4.314;2023-08-06T03:10:08;15.10;99.90
18160;DHT22;9205;52.032;4.314;2023-08-06T03:12:36;15.70;99.90
18160;DHT22;9205;52.032;4.314;2023-08-06T03:15:05;15.00;99.90
18160;DHT22;9205;52.032;4.314;2023-08-06T03:17:34;15.90;99.90
18160;DHT22;9205;52.032;4.314;2023-08-06T03:20:05;15.90;99.90
18160;DHT22;9205;52.032;4.314;2023-08-06T03:22:34;15.20;99.90
18160;DHT22;9205;52.032;4.314;2023-08-06T03:25:02;15.90;99.90
18160;DHT22;9205;52.032;4.314;2023-08-06T03:27:34;14.70;99.90
18160;DHT22;9205;52.032;4.314;2023-08-06T03:30:02;15.30;99.90
18160;DHT22;9205;52.032;4.314;2023-08-06T03:32:31;14.50;99.90
18160;DHT22;9205;52.032;4.314;2023-08-06T03:35:00;14.50;99.90
18160;DHT22;9205;52.032;4.314;2023-08-06T03:37:29;14.70;99.90
18160;DHT22;9205;52.032;4.314;2023-08-06T03:39:56;14.90;99.90
18160;DHT22;9205;52.032;4.314;2023-08-06T03:42:24;15.20;99.90
18160;DHT22;9205;52.032;4.314;2023-08-06T03:44:51;15.20;99.90
18160;DHT22;9205;52.032;4.314;2023-08-06T03:47:18;14.10;99.90
18160;DHT22;9205;52.032;4.314;2023-08-06T03:49:49;14.00;99.90
18160;DHT22;9205;52.032;4.314;2023-08-06T03:52:18;14.10;99.90
18160;DHT22;9205;52.032;4.314;2023-08-06T03:54:46;14.80;99.90
18160;DHT22;9205;52.032;4.314;2023-08-06T03:57:13;14.10;99.90
18160;DHT22;9205;52.032;4.314;2023-08-06T03:59:41;14.90;99.90
18160;DHT22;9205;52.032;4.314;2023-08-06T04:02:08;14.10;99.90
18160;DHT22;9205;52.032;4.314;2023-08-06T04:04:35;14.70;99.90
18160;DHT22;9205;52.032;4.314;2023-08-06T04:07:03;14.20;99.90
18160;DHT22;9205;52.032;4.314;2023-08-06T04:09:32;15.10;99.90
18160;DHT22;9205;52.032;4.314;2023-08-06T04:11:59;15.30;99.90
18160;DHT22;9205;52.032;4.314;2023-08-06T04:14:29;15.30;99.90
18160;DHT22;9205;52.032;4.314;2023-08-06T04:16:57;15.10;99.90
18160;DHT22;9205;52.032;4.314;2023-08-06T04:19:24;14.70;99.90
18160;DHT22;9205;52.032;4.314;2023-08-06T04:21:51;14.70;99.90
18160;DHT22;9205;52.032;4.314;2023-08-06T04:24:18;14.70;99.90
18160;DHT22;9205;52.032;4.314;2023-08-06T04:26:47;14.50;99.90
18160;DHT22;9205;52.032;4.314;2023-08-06T04:29:14;14.10;99.90
18160;DHT22;9205;52.032;4.314;2023-08-06T04:31:41;14.60;99.90
18160;DHT22;9205;52.032;4.314;2023-08-06T04:34:08;14.10;99.90
18160;DHT22;9205;52.032;4.314;2023-08-06T04:36:37;14.60;99.90
18160;DHT22;9205;52.032;4.314;2023-08-06T04:39:07;14.40;99.90
18160;DHT22;9205;52.032;4.314;2023-08-06T04:41:34;14.90;99.90
18160;DHT22;9205;52.032;4.314;2023-08-06T04:44:03;14.80;99.90
18160;DHT22;9205;52.032;4.314;2023-08-06T04:46:31;14.60;99.90
18160;DHT22;9205;52.032;4.314;2023-08-06T04:48:58;14.50;99.90
18160;DHT22;9205;52.032;4.314;2023-08-06T04:51:25;15.20;99.90
18160;DHT22;9205;52.032;4.314;2023-08-06T04:53:52;14.30;99.90
18160;DHT22;9205;52.032;4.314;2023-08-06T04:56:19;15.30;99.90
18160;DHT22;9205;52.032;4.314;2023-08-06T04:58:46;14.60;99.90
18160;DHT22;9205;52.032;4.314;2023-08-06T05:01:15;14.50;99.90
18160;DHT22;9205;52.032;4.314;2023-08-06T05:03:42;15.30;99.90
18160;DHT22;9205;52.032;4.314;2023-08-06T05:06:09;14.70;99.90
18160;DHT22;9205;52.032;4.314;2023-08-06T05:08:37;14.30;99.90
18160;DHT22;9205;52.032;4.314;2023-08-06T05:11:04;15.20;99.90
18160;DHT22;9205;52.032;4.314;2023-08-06T05:13:31;14.20;99.90
18160;DHT22;9205;52.032;4.314;2023-08-06T05:15:58;14.70;99.90
18160;DHT22;9205;52.032;4.314;2023-08-06T05:18:27;14.80;99.90
18160;DHT22;9205;52.032;4.314;2023-08-06T05:20:54;14.20;99.90
18160;DHT22;9205;52.032;4.314;2023-08-06T05:23:21;14.60;99.90
18160;DHT22;9205;52.032;4.314;2023-08-06T05:25:49;14.30;99.90
18160;DHT22;9205;52.032;4.314;2023-08-06T05:28:16;14.60;99.90
18160;DHT22;9205;52.032;4.314;2023-08-06T05:30:43;15.10;99.90
18160;DHT22;9205;52.032;4.314;2023-08-06T05:33:10;14.30;99.90
18160;DHT22;9205;52.032;4.314;2023-08-06T05:35:40;14.30;99.90
18160;DHT22;9205;52.032;4.314;2023-08-06T05:38:08;15.20;99.90
18160;DHT22;9205;52.032;4.314;2023-08-06T05:40:35;14.60;99.90
18160;DHT22;9205;52.032;4.314;2023-08-06T05:43:02;14.80;99.90
18160;DHT22;9205;52.032;4.314;2023-08-06T05:45:29;14.30;99.90
18160;DHT22;9205;52.032;4.314;2023-08-06T05:47:56;14.60;99.90
18160;DHT22;9205;52.032;4.314;2023-08-06T05:50:24;15.00;99.90
18160;DHT22;9205;52.032;4.314;2023-08-06T05:52:52;14.40;99.90
18160;DHT22;9205;52.032;4.314;2023-08-06T05:55:20;14.20;99.90
18160;DHT22;9205;52.032;4.314;2023-08-06T05:57:47;14.60;99.90
18160;DHT22;9205;52.032;4.314;2023-08-06T06:00:15;14.10;99.90
18160;DHT22;9205;52.032;4.314;2023-08-06T06:02:45;14.90;99.90
18160;DHT22;9205;52.032;4.314;2023-08-06T06:05:13;14.20;99.90
18160;DHT22;9205;52.032;4.314;2023-08-06T06:07:40;14.20;99.90
18160;DHT22;9205;52.032;4.314;2023-08-06T06:10:09;14.20;99.90
18160;DHT22;9205;52.032;4.314;2023-08-06T06:12:42;14.20;99.90
18160;DHT22;9205;52.032;4.314;2023-08-06T06:15:16;14.10;99.90
18160;DHT22;9205;52.032;4.314;2023-08-06T06:17:43;14.40;99.90
18160;DHT22;9205;52.032;4.314;2023-08-06T06:20:10;14.40;99.90
18160;DHT22;9205;52.032;4.314;2023-08-06T06:22:38;14.20;99.90
18160;DHT22;9205;52.032;4.314;2023-08-06T06:25:06;14.60;99.90
18160;DHT22;9205;52.032;4.314;2023-08-06T06:27:35;14.20;99.90
18160;DHT22;9205;52.032;4.314;2023-08-06T06:30:02;14.50;99.90
18160;DHT22;9205;52.032;4.314;2023-08-06T06:32:30;14.90;99.90
18160;DHT22;9205;52.032;4.314;2023-08-06T06:34:57;14.40;99.90
18160;DHT22;9205;52.032;4.314;2023-08-06T06:37:25;14.30;99.90
18160;DHT22;9205;52.032;4.314;2023-08-06T06:39:52;14.70;99.90
18160;DHT22;9205;52.032;4.314;2023-08-06T06:42:19;14.60;99.90
18160;DHT22;9205;52.032;4.314;2023-08-06T06:44:52;14.40;99.90
18160;DHT22;9205;52.032;4.314;2023-08-06T06:47:19;14.90;99.90
18160;DHT22;9205;52.032;4.314;2023-08-06T06:49:46;14.30;99.90
18160;DHT22;9205;52.032;4.314;2023-08-06T06:52:14;14.20;99.90
18160;DHT22;9205;52.032;4.314;2023-08-06T06:54:41;14.50;99.90
18160;DHT22;9205;52.032;4.314;2023-08-06T06:57:08;14.40;99.90
18160;DHT22;9205;52.032;4.314;2023-08-06T06:59:35;14.30;99.90
18160;DHT22;9205;52.032;4.314;2023-08-06T07:02:05;14.50;99.90
18160;DHT22;9205;52.032;4.314;2023-08-06T07:04:32;14.50;99.90
18160;DHT22;9205;52.032;4.314;2023-08-06T07:07:00;14.90;99.90
18160;DHT22;9205;52.032;4.314;2023-08-06T07:09:27;14.60;99.90
18160;DHT22;9205;52.032;4.314;2023-08-06T07:11:54;14.60;99.90
18160;DHT22;9205;52.032;4.314;2023-08-06T07:14:21;14.80;99.90
18160;DHT22;9205;52.032;4.314;2023-08-06T07:16:49;14.70;99.90
18160;DHT22;9205;52.032;4.314;2023-08-06T07:19:18;14.70;99.90
18160;DHT22;9205;52.032;4.314;2023-08-06T07:21:45;14.50;99.90
18160;DHT22;9205;52.032;4.314;2023-08-06T07:24:12;14.70;99.90
18160;DHT22;9205;52.032;4.314;2023-08-06T07:26:39;14.60;99.90
18160;DHT22;9205;52.032;4.314;2023-08-06T07:29:07;15.10;99.90
18160;DHT22;9205;52.032;4.314;2023-08-06T07:31:34;14.90;99.90
18160;DHT22;9205;52.032;4.314;2023-08-06T07:34:01;15.20;99.90
18160;DHT22;9205;52.032;4.314;2023-08-06T07:36:30;15.10;99.90
18160;DHT22;9205;52.032;4.314;2023-08-06T07:38:58;14.80;99.90
18160;DHT22;9205;52.032;4.314;2023-08-06T07:41:25;14.90;99.90
18160;DHT22;9205;52.032;4.314;2023-08-06T07:43:52;15.10;99.90
18160;DHT22;9205;52.032;4.314;2023-08-06T07:46:19;15.30;99.90
18160;DHT22;9205;52.032;4.314;2023-08-06T07:48:46;15.40;99.90
18160;DHT22;9205;52.032;4.314;2023-08-06T07:51:14;15.30;99.90
18160;DHT22;9205;52.032;4.314;2023-08-06T07:53:42;15.70;99.90
18160;DHT22;9205;52.032;4.314;2023-08-06T07:56:09;15.50;99.90
18160;DHT22;9205;52.032;4.314;2023-08-06T07:58:36;15.40;99.90
18160;DHT22;9205;52.032;4.314;2023-08-06T08:01:04;15.80;99.90
18160;DHT22;9205;52.032;4.314;2023-08-06T08:03:32;15.50;99.90
18160;DHT22;9205;52.032;4.314;2023-08-06T08:06:00;15.40;99.90
18160;DHT22;9205;52.032;4.314;2023-08-06T08:08:27;15.80;99.90
18160;DHT22;9205;52.032;4.314;2023-08-06T08:10:55;15.90;99.90
18160;DHT22;9205;52.032;4.314;2023-08-06T08:13:24;15.70;99.90
18160;DHT22;9205;52.032;4.314;2023-08-06T08:15:57;16.00;99.90
18160;DHT22;9205;52.032;4.314;2023-08-06T08:18:27;16.30;99.90
18160;DHT22;9205;52.032;4.314;2023-08-06T08:20:56;16.00;99.90
18160;DHT22;9205;52.032;4.314;2023-08-06T08:23:24;16.10;99.90
18160;DHT22;9205;52.032;4.314;2023-08-06T08:25:51;16.10;99.90
18160;DHT22;9205;52.032;4.314;2023-08-06T08:28:20;16.00;99.90
18160;DHT22;9205;52.032;4.314;2023-08-06T08:30:48;16.10;99.90
18160;DHT22;9205;52.032;4.314;2023-08-06T08:33:15;16.00;99.90
18160;DHT22;9205;52.032;4.314;2023-08-06T08:35:42;15.90;99.90
18160;DHT22;9205;52.032;4.314;2023-08-06T08:38:09;16.10;99.90
18160;DHT22;9205;52.032;4.314;2023-08-06T08:40:43;15.90;99.90
18160;DHT22;9205;52.032;4.314;2023-08-06T08:43:14;16.10;99.90
18160;DHT22;9205;52.032;4.314;2023-08-06T08:45:43;16.10;99.90
18160;DHT22;9205;52.032;4.314;2023-08-06T08:48:16;16.10;99.90
18160;DHT22;9205;52.032;4.314;2023-08-06T08:50:47;16.10;99.90
18160;DHT22;9205;52.032;4.314;2023-08-06T08:53:16;16.10;99.90
18160;DHT22;9205;52.032;4.314;2023-08-06T08:55:46;16.00;99.90
18160;DHT22;9205;52.032;4.314;2023-08-06T08:58:14;16.00;99.90
18160;DHT22;9205;52.032;4.314;2023-08-06T09:00:45;16.00;99.90
18160;DHT22;9205;52.032;4.314;2023-08-06T09:03:13;16.00;99.90
18160;DHT22;9205;52.032;4.314;2023-08-06T09:05:44;16.20;99.90
18160;DHT22;9205;52.032;4.314;2023-08-06T09:08:15;16.10;99.90
18160;DHT22;9205;52.032;4.314;2023-08-06T09:10:44;16.20;99.90
18160;DHT22;9205;52.032;4.314;2023-08-06T09:13:16;16.30;99.90
18160;DHT22;9205;52.032;4.314;2023-08-06T09:15:44;16.50;99.90
18160;DHT22;9205;52.032;4.314;2023-08-06T09:18:12;16.50;99.90
18160;DHT22;9205;52.032;4.314;2023-08-06T09:20:40;16.60;99.90
18160;DHT22;9205;52.032;4.314;2023-08-06T09:23:07;16.60;95.70
18160;DHT22;9205;52.032;4.314;2023-08-06T09:25:38;16.60;21.80
18160;DHT22;9205;52.032;4.314;2023-08-06T09:28:06;16.50;22.20
18160;DHT22;9205;52.032;4.314;2023-08-06T09:30:35;16.70;12.40
18160;DHT22;9205;52.032;4.314;2023-08-06T09:33:08;16.60;1.00
18160;DHT22;9205;52.032;4.314;2023-08-06T09:35:37;16.70;1.00
18160;DHT22;9205;52.032;4.314;2023-08-06T09:38:08;16.70;1.00
18160;DHT22;9205;52.032;4.314;2023-08-06T09:40:38;16.80;1.00
18160;DHT22;9205;52.032;4.314;2023-08-06T09:43:06;16.80;1.00
18160;DHT22;9205;52.032;4.314;2023-08-06T09:45:35;16.90;1.00
18160;DHT22;9205;52.032;4.314;2023-08-06T09:48:06;17.00;1.00
18160;DHT22;9205;52.032;4.314;2023-08-06T09:50:35;16.90;1.00
18160;DHT22;9205;52.032;4.314;2023-08-06T09:53:05;17.10;1.00
18160;DHT22;9205;52.032;4.314;2023-08-06T09:55:34;17.10;1.00
18160;DHT22;9205;52.032;4.314;2023-08-06T09:58:01;17.10;1.00
18160;DHT22;9205;52.032;4.314;2023-08-06T10:00:29;17.20;1.00
18160;DHT22;9205;52.032;4.314;2023-08-06T10:03:00;17.20;1.00
18160;DHT22;9205;52.032;4.314;2023-08-06T10:05:30;17.30;1.00
18160;DHT22;9205;52.032;4.314;2023-08-06T10:07:59;17.20;1.00
18160;DHT22;9205;52.032;4.314;2023-08-06T10:10:29;17.30;1.00
18160;DHT22;9205;52.032;4.314;2023-08-06T10:12:58;17.40;1.00
18160;DHT22;9205;52.032;4.314;2023-08-06T10:15:30;17.50;1.00
18160;DHT22;9205;52.032;4.314;2023-08-06T10:17:59;17.60;1.00
18160;DHT22;9205;52.032;4.314;2023-08-06T10:20:34;17.60;1.00
18160;DHT22;9205;52.032;4.314;2023-08-06T10:23:03;17.80;1.00
18160;DHT22;9205;52.032;4.314;2023-08-06T10:25:32;17.90;1.00
18160;DHT22;9205;52.032;4.314;2023-08-06T10:28:00;17.80;1.00
18160;DHT22;9205;52.032;4.314;2023-08-06T10:30:33;17.70;1.00
18160;DHT22;9205;52.032;4.314;2023-08-06T10:33:07;17.80;1.00
18160;DHT22;9205;52.032;4.314;2023-08-06T10:35:37;17.90;1.00
18160;DHT22;9205;52.032;4.314;2023-08-06T10:38:10;17.70;1.00
18160;DHT22;9205;52.032;4.314;2023-08-06T10:40:40;17.70;1.00
18160;DHT22;9205;52.032;4.314;2023-08-06T10:43:08;17.80;1.00
18160;DHT22;9205;52.032;4.314;2023-08-06T10:45:52;17.90;1.00
18160;DHT22;9205;52.032;4.314;2023-08-06T10:48:29;18.00;1.00
18160;DHT22;9205;52.032;4.314;2023-08-06T10:51:00;18.00;1.00
18160;DHT22;9205;52.032;4.314;2023-08-06T10:53:27;18.00;1.00
18160;DHT22;9205;52.032;4.314;2023-08-06T10:55:55;17.90;1.00
18160;DHT22;9205;52.032;4.314;2023-08-06T10:58:23;17.80;1.00
18160;DHT22;9205;52.032;4.314;2023-08-06T11:00:50;17.90;1.00
18160;DHT22;9205;52.032;4.314;2023-08-06T11:03:17;17.90;1.00
18160;DHT22;9205;52.032;4.314;2023-08-06T11:05:49;18.00;1.00
18160;DHT22;9205;52.032;4.314;2023-08-06T11:08:25;18.10;1.00
18160;DHT22;9205;52.032;4.314;2023-08-06T11:10:52;18.30;1.00
18160;DHT22;9205;52.032;4.314;2023-08-06T11:13:20;18.60;1.00
18160;DHT22;9205;52.032;4.314;2023-08-06T11:15:47;18.60;1.00
18160;DHT22;9205;52.032;4.314;2023-08-06T11:18:14;18.30;1.00
18160;DHT22;9205;52.032;4.314;2023-08-06T11:20:42;17.90;1.00
18160;DHT22;9205;52.032;4.314;2023-08-06T11:23:10;17.60;1.00
18160;DHT22;9205;52.032;4.314;2023-08-06T11:25:44;17.40;1.00
18160;DHT22;9205;52.032;4.314;2023-08-06T11:28:11;17.20;79.30
18160;DHT22;9205;52.032;4.314;2023-08-06T11:30:39;17.10;99.90
18160;DHT22;9205;52.032;4.314;2023-08-06T11:33:07;16.90;99.90
18160;DHT22;9205;52.032;4.314;2023-08-06T11:35:35;17.10;99.90
18160;DHT22;9205;52.032;4.314;2023-08-06T11:38:03;17.20;99.90
18160;DHT22;9205;52.032;4.314;2023-08-06T11:40:31;17.60;99.90
18160;DHT22;9205;52.032;4.314;2023-08-06T11:43:00;17.70;99.90
18160;DHT22;9205;52.032;4.314;2023-08-06T11:45:27;17.70;99.90
18160;DHT22;9205;52.032;4.314;2023-08-06T11:47:55;17.60;99.90
18160;DHT22;9205;52.032;4.314;2023-08-06T11:50:22;17.60;99.90
18160;DHT22;9205;52.032;4.314;2023-08-06T11:52:53;17.50;47.20
18160;DHT22;9205;52.032;4.314;2023-08-06T11:55:24;17.30;1.00
18160;DHT22;9205;52.032;4.314;2023-08-06T11:57:52;17.20;1.00
18160;DHT22;9205;52.032;4.314;2023-08-06T12:00:23;17.40;1.00
18160;DHT22;9205;52.032;4.314;2023-08-06T12:02:52;17.50;1.00
18160;DHT22;9205;52.032;4.314;2023-08-06T12:05:22;17.60;1.00
18160;DHT22;9205;52.032;4.314;2023-08-06T12:07:54;17.80;1.00
18160;DHT22;9205;52.032;4.314;2023-08-06T12:10:26;17.80;1.00
18160;DHT22;9205;52.032;4.314;2023-08-06T12:12:54;17.70;1.00
18160;DHT22;9205;52.032;4.314;2023-08-06T12:15:23;17.80;1.00
18160;DHT22;9205;52.032;4.314;2023-08-06T12:17:50;18.30;1.00
18160;DHT22;9205;52.032;4.314;2023-08-06T12:20:21;18.50;1.00
18160;DHT22;9205;52.032;4.314;2023-08-06T12:22:58;18.60;1.00
18160;DHT22;9205;52.032;4.314;2023-08-06T12:25:25;18.70;1.00
18160;DHT22;9205;52.032;4.314;2023-08-06T12:27:52;18.60;1.00
18160;DHT22;9205;52.032;4.314;2023-08-06T12:30:19;18.40;1.00
18160;DHT22;9205;52.032;4.314;2023-08-06T12:32:48;18.30;1.00
18160;DHT22;9205;52.032;4.314;2023-08-06T12:35:17;18.60;1.00
18160;DHT22;9205;52.032;4.314;2023-08-06T12:37:45;19.00;1.00
18160;DHT22;9205;52.032;4.314;2023-08-06T12:40:12;19.10;1.00
18160;DHT22;9205;52.032;4.314;2023-08-06T12:42:40;18.80;1.00
18160;DHT22;9205;52.032;4.314;2023-08-06T12:45:08;18.90;1.00
18160;DHT22;9205;52.032;4.314;2023-08-06T12:47:35;19.10;1.00
18160;DHT22;9205;52.032;4.314;2023-08-06T12:50:05;19.30;1.00
18160;DHT22;9205;52.032;4.314;2023-08-06T12:52:33;19.20;1.00
18160;DHT22;9205;52.032;4.314;2023-08-06T12:55:00;19.10;1.00
18160;DHT22;9205;52.032;4.314;2023-08-06T12:57:27;19.20;1.00
18160;DHT22;9205;52.032;4.314;2023-08-06T12:59:55;18.80;1.00
18160;DHT22;9205;52.032;4.314;2023-08-06T13:02:22;18.60;1.00
18160;DHT22;9205;52.032;4.314;2023-08-06T13:04:49;18.70;1.00
18160;DHT22;9205;52.032;4.314;2023-08-06T13:07:18;18.80;1.00
18160;DHT22;9205;52.032;4.314;2023-08-06T13:09:45;18.70;1.00
18160;DHT22;9205;52.032;4.314;2023-08-06T13:12:12;18.40;1.00
18160;DHT22;9205;52.032;4.314;2023-08-06T13:14:40;18.30;1.00
18160;DHT22;9205;52.032;4.314;2023-08-06T13:17:07;18.10;1.00
18160;DHT22;9205;52.032;4.314;2023-08-06T13:19:35;17.90;1.00
18160;DHT22;9205;52.032;4.314;2023-08-06T13:22:03;17.60;1.00
18160;DHT22;9205;52.032;4.314;2023-08-06T13:24:34;17.30;1.00
18160;DHT22;9205;52.032;4.314;2023-08-06T13:27:01;17.30;1.00
18160;DHT22;9205;52.032;4.314;2023-08-06T13:29:29;17.20;99.90
18160;DHT22;9205;52.032;4.314;2023-08-06T13:31:56;17.20;99.90
18160;DHT22;9205;52.032;4.314;2023-08-06T13:34:23;16.80;99.90
18160;DHT22;9205;52.032;4.314;2023-08-06T13:36:51;16.80;99.90
18160;DHT22;9205;52.032;4.314;2023-08-06T13:39:18;16.50;99.90
18160;DHT22;9205;52.032;4.314;2023-08-06T13:41:47;16.60;99.90
18160;DHT22;9205;52.032;4.314;2023-08-06T13:44:14;16.40;99.90
18160;DHT22;9205;52.032;4.314;2023-08-06T13:46:42;16.30;99.90
18160;DHT22;9205;52.032;4.314;2023-08-06T13:49:10;16.40;99.90
18160;DHT22;9205;52.032;4.314;2023-08-06T13:51:37;16.20;99.90
18160;DHT22;9205;52.032;4.314;2023-08-06T13:54:05;16.10;99.90
18160;DHT22;9205;52.032;4.314;2023-08-06T13:56:33;15.90;99.90
18160;DHT22;9205;52.032;4.314;2023-08-06T13:59:02;15.90;99.90
18160;DHT22;9205;52.032;4.314;2023-08-06T14:01:29;15.80;99.90
18160;DHT22;9205;52.032;4.314;2023-08-06T14:03:56;15.60;99.90
18160;DHT22;9205;52.032;4.314;2023-08-06T14:06:24;15.60;99.90
18160;DHT22;9205;52.032;4.314;2023-08-06T14:08:51;15.60;99.90
18160;DHT22;9205;52.032;4.314;2023-08-06T14:11:18;15.70;99.90
18160;DHT22;9205;52.032;4.314;2023-08-06T14:13:46;15.70;99.90
18160;DHT22;9205;52.032;4.314;2023-08-06T14:16:14;15.70;99.90
18160;DHT22;9205;52.032;4.314;2023-08-06T14:18:42;15.70;99.90
18160;DHT22;9205;52.032;4.314;2023-08-06T14:21:09;15.90;99.90
18160;DHT22;9205;52.032;4.314;2023-08-06T14:23:36;15.80;99.90
18160;DHT22;9205;52.032;4.314;2023-08-06T14:26:04;15.90;99.90
18160;DHT22;9205;52.032;4.314;2023-08-06T14:28:31;15.80;99.90
18160;DHT22;9205;52.032;4.314;2023-08-06T14:30:58;15.70;99.90
18160;DHT22;9205;52.032;4.314;2023-08-06T14:33:27;16.00;99.90
18160;DHT22;9205;52.032;4.314;2023-08-06T14:35:55;15.80;99.90
18160;DHT22;9205;52.032;4.314;2023-08-06T14:38:22;16.00;99.90
18160;DHT22;9205;52.032;4.314;2023-08-06T14:40:49;16.00;99.90
18160;DHT22;9205;52.032;4.314;2023-08-06T14:43:17;15.90;99.90
18160;DHT22;9205;52.032;4.314;2023-08-06T14:45:45;16.00;99.90
18160;DHT22;9205;52.032;4.314;2023-08-06T14:48:12;16.10;99.90
18160;DHT22;9205;52.032;4.314;2023-08-06T14:50:41;15.80;99.90
18160;DHT22;9205;52.032;4.314;2023-08-06T14:53:08;15.90;99.90
18160;DHT22;9205;52.032;4.314;2023-08-06T14:55:37;15.70;99.90
18160;DHT22;9205;52.032;4.314;2023-08-06T14:58:04;15.80;99.90
18160;DHT22;9205;52.032;4.314;2023-08-06T15:00:32;15.50;99.90
18160;DHT22;9205;52.032;4.314;2023-08-06T15:02:59;15.50;99.90
18160;DHT22;9205;52.032;4.314;2023-08-06T15:05:26;15.30;99.90
18160;DHT22;9205;52.032;4.314;2023-08-06T15:07:55;15.40;99.90
18160;DHT22;9205;52.032;4.314;2023-08-06T15:10:22;15.50;99.90
18160;DHT22;9205;52.032;4.314;2023-08-06T15:12:49;15.50;99.90
18160;DHT22;9205;52.032;4.314;2023-08-06T15:15:17;15.60;99.90
18160;DHT22;9205;52.032;4.314;2023-08-06T15:17:44;15.70;99.90
18160;DHT22;9205;52.032;4.314;2023-08-06T15:20:12;15.70;99.90
18160;DHT22;9205;52.032;4.314;2023-08-06T15:22:39;15.60;99.90
18160;DHT22;9205;52.032;4.314;2023-08-06T15:25:08;15.70;99.90
18160;DHT22;9205;52.032;4.314;2023-08-06T15:27:36;15.40;99.90
18160;DHT22;9205;52.032;4.314;2023-08-06T15:30:06;15.60;99.90
18160;DHT22;9205;52.032;4.314;2023-08-06T15:32:34;15.60;99.90
18160;DHT22;9205;52.032;4.314;2023-08-06T15:35:02;15.50;99.90
18160;DHT22;9205;52.032;4.314;2023-08-06T15:37:31;15.20;99.90
18160;DHT22;9205;52.032;4.314;2023-08-06T15:39:59;15.20;99.90
18160;DHT22;9205;52.032;4.314;2023-08-06T15:42:27;15.30;99.90
18160;DHT22;9205;52.032;4.314;2023-08-06T15:44:54;15.20;99.90
18160;DHT22;9205;52.032;4.314;2023-08-06T15:47:22;15.40;99.90
18160;DHT22;9205;52.032;4.314;2023-08-06T15:49:49;15.30;99.90
18160;DHT22;9205;52.032;4.314;2023-08-06T15:52:17;15.50;99.90
18160;DHT22;9205;52.032;4.314;2023-08-06T15:54:44;15.60;99.90
18160;DHT22;9205;52.032;4.314;2023-08-06T15:57:11;15.80;99.90